Photometre #25[NE_1.6] OHP_OBSERVATOIRE AOT

File : 20200928_25.hum

28/09/2020,06:22:02,TEMP=9.4,BA=5.68,STAT.A=11.5,ExtBa=13.40
28/09/2020,06:25:39,TEMP=9.5,BA=5.68,STAT.A=11.0,ExtBa=13.37
28/09/2020,06:29:52,TEMP=9.4,BA=5.68,STAT.A=11.0,ExtBa=13.35
28/09/2020,06:34:56,TEMP=9.3,BA=5.68,STAT.A=11.0,ExtBa=13.35
28/09/2020,06:41:00,TEMP=9.2,BA=5.68,STAT.A=11.0,ExtBa=13.05
28/09/2020,06:48:29,TEMP=9.2,BA=5.68,STAT.A=11.5,ExtBa=13.09
28/09/2020,06:57:59,TEMP=9.3,BA=5.68,STAT.B=11.5,ExtBa=13.22
28/09/2020,07:02:33,TEMP=9.4,BA=5.68,STAT.A=11.0,ExtBa=13.23
28/09/2020,07:07:38,TEMP=9.5,BA=5.68,STAT.A=11.0,ExtBa=13.25
28/09/2020,07:13:25,TEMP=9.5,BA=5.68,STAT.A=11.0,ExtBa=13.28
28/09/2020,07:19:59,TEMP=9.6,BA=5.68,STAT.A=11.5,ExtBa=13.30
28/09/2020,07:27:33,TEMP=9.6,BA=5.64,STAT.C=11.5,ExtBa=13.34
28/09/2020,07:36:24,TEMP=9.7,BA=5.68,STAT.A=11.5,ExtBa=13.36
28/09/2020,07:46:53,TEMP=9.7,BA=5.68,STAT.A=11.5,ExtBa=13.38
28/09/2020,07:59:32,TEMP=9.9,BA=5.68,STAT.A=11.5,ExtBa=13.40
28/09/2020,08:15:14,TEMP=10.2,BA=5.68,STAT.A=11.5,ExtBa=13.41
28/09/2020,08:28:08,TEMP=10.5,BA=5.68,STAT.F,ExtBa=13.36
28/09/2020,08:43:06,TEMP=10.9,BA=5.68,STAT.D=11.5,ExtBa=13.41
28/09/2020,08:58:07,TEMP=12.2,BA=5.68,STAT.D=11.5,ExtBa=13.41
28/09/2020,09:13:08,TEMP=14.0,BA=5.68,STAT.D=11.5,ExtBa=13.41
28/09/2020,09:28:08,TEMP=14.2,BA=5.68,STAT.F,ExtBa=13.37
28/09/2020,09:35:50,TEMP=14.1,BA=5.60,STAT.h
28/09/2020,09:36:11,TEMP=14.1,BA=5.60,STAT.h
28/09/2020,09:43:08,TEMP=13.9,BA=5.68,STAT.D=11.5,ExtBa=13.08
28/09/2020,09:58:07,TEMP=14.6,BA=5.68,STAT.D=11.5,ExtBa=13.30
28/09/2020,10:13:09,TEMP=15.0,BA=5.68,STAT.D=11.5,ExtBa=13.39
28/09/2020,10:28:11,TEMP=15.1,BA=5.68,STAT.F,ExtBa=13.36
28/09/2020,10:43:08,TEMP=16.0,BA=5.68,STAT.D=11.5,ExtBa=13.41
28/09/2020,10:58:09,TEMP=15.2,BA=5.68,STAT.D=11.5,ExtBa=13.42
28/09/2020,11:13:08,TEMP=14.8,BA=5.68,STAT.D=11.5,ExtBa=13.42
28/09/2020,11:28:10,TEMP=14.8,BA=5.68,STAT.F,ExtBa=13.29
28/09/2020,11:43:09,TEMP=15.2,BA=5.68,STAT.D=11.5,ExtBa=13.41
28/09/2020,11:58:08,TEMP=15.2,BA=5.68,STAT.D=11.5,ExtBa=13.41
28/09/2020,12:13:09,TEMP=15.3,BA=5.68,STAT.D=11.5,ExtBa=13.41
28/09/2020,13:28:10,TEMP=21.6,BA=5.68,STAT.F,ExtBa=13.45
28/09/2020,13:39:43,TEMP=20.3,BA=5.52,STAT.b=11.5
28/09/2020,13:43:25,TEMP=19.6,BA=5.60,STAT.D=11.5,ExtBa=13.01
28/09/2020,13:58:18,TEMP=19.7,BA=5.68,STAT.b=11.5
28/09/2020,14:13:08,TEMP=18.1,BA=5.68,STAT.D=10.0,ExtBa=13.48
28/09/2020,14:28:27,TEMP=18.5,BA=5.68,STAT.F,ExtBa=13.45
28/09/2020,14:45:40,TEMP=18.5,BA=5.52,STAT.A=9.5,ExtBa=12.90
28/09/2020,14:57:03,TEMP=18.1,BA=5.68,STAT.A=9.5,ExtBa=13.23
28/09/2020,14:58:43,TEMP=18.3,BA=5.68,STAT.b=9.5
28/09/2020,15:09:42,TEMP=17.9,BA=5.68,STAT.A=9.0,ExtBa=13.36
28/09/2020,15:20:12,TEMP=17.9,BA=5.60,STAT.A=9.0,ExtBa=13.40
28/09/2020,15:29:01,TEMP=17.6,BA=5.60,STAT.C=9.0,ExtBa=13.41
28/09/2020,15:30:44,TEMP=17.7,BA=5.56,STAT.b=9.0
28/09/2020,15:36:36,TEMP=17.4,BA=5.56,STAT.A=9.0,ExtBa=13.38
28/09/2020,15:43:11,TEMP=17.2,BA=5.68,STAT.A=9.0,ExtBa=13.37
28/09/2020,15:48:57,TEMP=17.1,BA=5.68,STAT.A=9.0,ExtBa=13.29
28/09/2020,15:54:03,TEMP=17.1,BA=5.52,STAT.A=9.0,ExtBa=13.28
28/09/2020,15:55:45,TEMP=17.2,BA=5.52,STAT.b=9.0
28/09/2020,15:58:36,TEMP=16.9,BA=5.52,STAT.B=9.0,ExtBa=13.24
28/09/2020,16:10:17,TEMP=16.4,BA=5.52,STAT.A=9.0,ExtBa=12.90
28/09/2020,16:15:35,TEMP=16.3,BA=5.52,STAT.A=9.0,ExtBa=13.05
28/09/2020,16:21:39,TEMP=16.0,BA=5.68,STAT.A=9.0,ExtBa=13.13
28/09/2020,16:26:41,TEMP=15.9,BA=5.68,STAT.A=9.0,ExtBa=13.14
28/09/2020,16:30:54,TEMP=15.8,BA=5.68,STAT.A=9.0,ExtBa=13.12
28/09/2020,16:45:03,TEMP=15.4,BA=5.68,STAT.A=9.0,ExtBa=13.32